Terminal Aerodrome Forecast
Issued by NWS San Angelo, TX

Current Version | Previous Version | Text Only | Print | Product List | Glossary Off
Versions: 1 2 3 4 5 6 7 8 9 10 11 12 13 14 15 16 17 18 19

522
FTUS44 KSJT 282342
TAFSJT
TAF
KSJT 282342Z 2900/2924 04012KT P6SM VCTS BKN050CB
      TEMPO 2900/2902 6SM -TSRA BKN050CB
     FM290300 VRB06KT P6SM SCT100 BKN250
     FM291600 05011G17KT P6SM SKC=

USA.gov is the U.S. government's official web portal to all federal, state and local government web resources and services.